createdAt,value
2024-03-11T00:00:36.820Z,2.47
2024-03-11T00:03:04.782Z,3.80
2024-03-11T00:05:32.116Z,1.70
2024-03-11T00:08:00.310Z,1.63
2024-03-11T00:10:29.195Z,4.00
2024-03-11T00:12:57.662Z,1.60
2024-03-11T00:15:25.499Z,2.07
2024-03-11T00:17:53.727Z,2.03
2024-03-11T00:20:22.205Z,2.27
2024-03-11T00:22:50.611Z,1.80
2024-03-11T00:25:17.981Z,1.93
2024-03-11T00:27:44.789Z,2.40
2024-03-11T00:30:12.908Z,3.33
2024-03-11T00:32:47.499Z,2.73
2024-03-11T00:35:16.204Z,2.70
2024-03-11T00:37:43.545Z,3.17
2024-03-11T00:40:11.524Z,3.83
2024-03-11T00:42:42.395Z,2.20
2024-03-11T00:45:13.594Z,2.60
2024-03-11T00:47:43.160Z,5.23
2024-03-11T00:50:14.835Z,3.27
2024-03-11T00:52:46.456Z,3.97
2024-03-11T00:55:14.204Z,2.93
2024-03-11T00:57:42.935Z,2.40
2024-03-11T01:00:13.439Z,4.43
2024-03-11T01:02:41.979Z,2.53
2024-03-11T01:05:10.034Z,2.47
2024-03-11T01:07:44.965Z,3.47
2024-03-11T01:10:17.791Z,2.87
2024-03-11T01:12:45.130Z,4.13
2024-03-11T01:15:12.611Z,2.17
2024-03-11T01:17:40.133Z,2.73
2024-03-11T01:20:12.443Z,2.27
2024-03-11T01:22:41.075Z,3.23
2024-03-11T01:25:10.109Z,2.20
2024-03-11T01:27:36.984Z,2.70
2024-03-11T01:30:04.936Z,2.53
2024-03-11T01:32:31.785Z,3.30
2024-03-11T01:34:59.714Z,2.70
2024-03-11T01:37:26.836Z,3.57
2024-03-11T01:39:53.662Z,2.70
2024-03-11T01:42:20.684Z,4.13
2024-03-11T01:44:51.209Z,3.63
2024-03-11T01:47:24.850Z,2.60
2024-03-11T01:49:53.780Z,3.70
2024-03-11T01:52:25.187Z,3.13
2024-03-11T01:54:53.285Z,2.70
2024-03-11T01:57:20.300Z,2.20
2024-03-11T01:59:47.108Z,3.10
2024-03-11T02:02:15.000Z,3.67
2024-03-11T02:04:46.574Z,2.57
2024-03-11T02:07:14.714Z,2.63
2024-03-11T02:09:42.334Z,3.13
2024-03-11T02:12:10.427Z,2.40
2024-03-11T02:14:37.443Z,3.67
2024-03-11T02:17:05.712Z,3.53
2024-03-11T02:19:32.752Z,3.23
2024-03-11T02:21:59.573Z,2.90
2024-03-11T02:24:26.656Z,3.50
2024-03-11T02:26:53.451Z,3.50
2024-03-11T02:29:20.641Z,3.47
2024-03-11T02:31:50.449Z,3.73
2024-03-11T02:34:17.427Z,3.90
2024-03-11T02:36:50.070Z,4.30
2024-03-11T02:39:17.704Z,4.13
2024-03-11T02:41:45.207Z,4.83
2024-03-11T02:44:16.168Z,5.00
2024-03-11T02:46:43.449Z,5.03
2024-03-11T02:49:11.057Z,4.77
2024-03-11T02:51:39.821Z,4.40
2024-03-11T02:54:07.079Z,4.83
2024-03-11T02:56:34.230Z,6.13
2024-03-11T02:59:01.410Z,5.43
2024-03-11T03:01:31.269Z,4.47
2024-03-11T03:03:58.287Z,5.00
2024-03-11T03:06:25.169Z,4.60
2024-03-11T03:08:51.979Z,6.07
2024-03-11T03:11:18.781Z,5.20
2024-03-11T03:13:45.536Z,4.40
2024-03-11T03:16:12.264Z,5.20
2024-03-11T03:18:40.320Z,4.53
2024-03-11T03:21:07.738Z,7.27
2024-03-11T03:23:34.607Z,5.33
2024-03-11T03:26:01.431Z,5.37
2024-03-11T03:28:28.177Z,5.67
2024-03-11T03:30:59.334Z,6.87
2024-03-11T03:33:28.952Z,6.23
2024-03-11T03:35:56.971Z,6.83
2024-03-11T03:38:23.987Z,5.17
2024-03-11T03:40:51.002Z,8.03
2024-03-11T03:43:17.742Z,6.30
2024-03-11T03:45:45.573Z,6.40
2024-03-11T03:48:12.535Z,6.07
2024-03-11T03:50:39.402Z,7.37
2024-03-11T03:53:09.396Z,5.93
2024-03-11T03:55:38.453Z,5.70
2024-03-11T03:58:05.296Z,6.13
2024-03-11T04:00:32.092Z,5.87
2024-03-11T04:02:59.244Z,7.57
2024-03-11T04:05:27.460Z,5.60
2024-03-11T04:07:54.395Z,5.93
2024-03-11T04:10:21.521Z,6.80
2024-03-11T04:12:49.974Z,5.10
2024-03-11T04:15:22.462Z,4.93
2024-03-11T04:17:50.222Z,5.93
2024-03-11T04:20:17.680Z,5.80
2024-03-11T04:22:45.964Z,5.70
2024-03-11T04:25:20.958Z,6.77
2024-03-11T04:27:48.733Z,5.23
2024-03-11T04:30:17.042Z,5.60
2024-03-11T04:32:45.028Z,4.97
2024-03-11T04:35:12.612Z,5.17
2024-03-11T04:37:39.726Z,8.17
2024-03-11T04:40:08.748Z,5.33
2024-03-11T04:42:35.725Z,6.37
2024-03-11T04:45:02.546Z,5.83
2024-03-11T04:47:29.374Z,6.77
2024-03-11T04:49:56.904Z,7.47
2024-03-11T04:52:23.689Z,6.83
2024-03-11T04:54:50.804Z,8.07
2024-03-11T04:57:17.559Z,5.33
2024-03-11T04:59:44.309Z,6.77
2024-03-11T05:02:11.089Z,5.33
2024-03-11T05:04:37.945Z,5.50
2024-03-11T05:07:04.681Z,9.10
2024-03-11T05:09:31.453Z,5.43
2024-03-11T05:11:59.831Z,6.93
2024-03-11T05:14:26.756Z,6.43
2024-03-11T05:16:56.340Z,5.17
2024-03-11T05:19:23.112Z,5.37
2024-03-11T05:21:49.864Z,5.77
2024-03-11T05:24:17.076Z,5.20
2024-03-11T05:26:44.031Z,4.97
2024-03-11T05:29:14.199Z,6.00
2024-03-11T05:31:41.281Z,5.53
2024-03-11T05:34:08.076Z,5.83
2024-03-11T05:36:34.853Z,5.43
2024-03-11T05:39:01.782Z,7.47
2024-03-11T05:41:28.712Z,6.37
2024-03-11T05:43:55.552Z,5.70
2024-03-11T05:46:22.294Z,7.73
2024-03-11T05:48:49.121Z,6.13
2024-03-11T05:51:15.870Z,5.93
2024-03-11T05:53:42.644Z,6.73
2024-03-11T05:56:12.053Z,6.10
2024-03-11T05:58:39.674Z,7.13
2024-03-11T06:01:06.532Z,8.00
2024-03-11T06:03:33.326Z,7.53
2024-03-11T06:06:00.206Z,6.93
2024-03-11T06:08:29.204Z,6.57
2024-03-11T06:10:56.198Z,6.57
2024-03-11T06:13:22.973Z,6.93
2024-03-11T06:15:49.700Z,7.00
2024-03-11T06:18:16.820Z,6.53
2024-03-11T06:20:43.700Z,6.40
2024-03-11T06:23:10.524Z,7.17
2024-03-11T06:25:37.336Z,10.47
2024-03-11T06:28:05.712Z,7.33
2024-03-11T06:30:35.137Z,7.13
2024-03-11T06:33:02.099Z,7.87
2024-03-11T06:35:29.007Z,7.20
2024-03-11T06:37:55.783Z,6.37
2024-03-11T06:40:23.052Z,8.50
2024-03-11T06:42:50.318Z,8.13
2024-03-11T06:45:17.165Z,8.13
2024-03-11T06:47:45.103Z,7.67
2024-03-11T06:50:14.407Z,7.73
2024-03-11T06:52:41.618Z,9.97
2024-03-11T06:55:11.814Z,8.90
2024-03-11T06:57:39.634Z,8.73
2024-03-11T07:00:18.232Z,9.90
2024-03-11T07:02:49.224Z,8.23
2024-03-11T07:05:16.254Z,7.63
2024-03-11T07:07:43.984Z,8.00
2024-03-11T07:10:12.390Z,9.27
2024-03-11T07:12:44.396Z,10.53
2024-03-11T07:15:11.614Z,10.67
2024-03-11T07:17:39.295Z,8.57
2024-03-11T07:20:09.498Z,12.77
2024-03-11T07:22:36.423Z,9.00
2024-03-11T07:25:17.366Z,11.90
2024-03-11T07:27:48.410Z,11.73
2024-03-11T07:30:15.918Z,11.67
2024-03-11T07:32:43.354Z,9.57
2024-03-11T07:35:10.166Z,10.77
2024-03-11T07:37:41.631Z,9.20
2024-03-11T07:40:12.646Z,9.80
2024-03-11T07:42:40.312Z,8.53
2024-03-11T07:45:11.982Z,8.63
2024-03-11T07:47:42.246Z,8.27
2024-03-11T07:50:10.517Z,12.43
2024-03-11T07:52:38.448Z,9.00
2024-03-11T07:55:05.529Z,11.40
2024-03-11T07:57:32.395Z,8.10
2024-03-11T07:59:59.225Z,11.37
2024-03-11T08:02:26.661Z,8.87
2024-03-11T08:04:56.761Z,8.50
2024-03-11T08:07:23.748Z,7.40
2024-03-11T08:09:50.512Z,7.20
2024-03-11T08:12:17.263Z,7.40
2024-03-11T08:14:45.414Z,6.50
2024-03-11T08:17:12.784Z,7.90
2024-03-11T08:19:39.536Z,7.13
2024-03-11T08:22:06.365Z,4.73
2024-03-11T08:24:33.515Z,6.00
2024-03-11T08:27:00.259Z,6.23
2024-03-11T08:29:28.365Z,6.40
2024-03-11T08:31:55.104Z,8.70
2024-03-11T08:34:22.129Z,6.17
2024-03-11T08:36:48.937Z,6.73
2024-03-11T08:39:15.829Z,5.70
2024-03-11T08:41:42.655Z,7.07
2024-03-11T08:44:11.294Z,7.50
2024-03-11T08:46:38.309Z,5.73
2024-03-11T08:49:05.379Z,6.60
2024-03-11T08:51:32.852Z,5.13
2024-03-11T08:54:00.708Z,5.23
2024-03-11T08:56:29.614Z,4.13
2024-03-11T08:58:57.799Z,3.37
2024-03-11T09:01:24.987Z,3.80
2024-03-11T09:03:51.797Z,4.40
2024-03-11T09:06:18.549Z,5.17
2024-03-11T09:08:45.606Z,5.07
2024-03-11T09:11:12.444Z,3.67
2024-03-11T09:13:41.444Z,6.90
2024-03-11T09:16:08.391Z,3.77
2024-03-11T09:18:35.506Z,4.07
2024-03-11T09:21:04.636Z,4.47
2024-03-11T09:23:31.605Z,4.03
2024-03-11T09:26:02.842Z,4.33
2024-03-11T09:28:30.031Z,3.13
2024-03-11T09:30:58.464Z,2.37
2024-03-11T09:33:25.396Z,3.20
2024-03-11T09:35:52.884Z,3.07
2024-03-11T09:38:20.578Z,3.37
2024-03-11T09:40:49.198Z,3.73
2024-03-11T09:43:18.591Z,3.13
2024-03-11T09:45:46.722Z,4.07
2024-03-11T09:48:13.779Z,3.70
2024-03-11T09:50:43.406Z,3.07
2024-03-11T09:53:14.820Z,3.80
2024-03-11T09:55:45.216Z,4.73
2024-03-11T09:58:20.451Z,3.23
2024-03-11T10:00:50.898Z,2.20
2024-03-11T10:03:25.590Z,1.97
2024-03-11T10:06:00.902Z,3.43
2024-03-11T10:08:28.781Z,2.43
2024-03-11T10:11:15.936Z,3.20
2024-03-11T10:13:43.316Z,5.10
2024-03-11T10:16:25.709Z,2.03
2024-03-11T10:19:04.390Z,3.17
2024-03-11T10:21:35.205Z,2.40
2024-03-11T10:24:02.960Z,2.10
2024-03-11T10:26:42.763Z,2.60
2024-03-11T10:29:12.735Z,2.90
2024-03-11T10:31:42.614Z,3.10
2024-03-11T10:34:12.414Z,2.23
2024-03-11T10:36:46.998Z,4.03
2024-03-11T10:39:27.225Z,2.80
2024-03-11T10:41:54.895Z,3.57
2024-03-11T10:44:30.275Z,2.27
2024-03-11T10:47:23.019Z,3.73
2024-03-11T10:49:55.103Z,2.63
2024-03-11T10:52:24.541Z,2.50
2024-03-11T10:57:46.700Z,3.93
2024-03-11T11:00:21.625Z,1.80
2024-03-11T11:02:56.609Z,2.93
2024-03-11T11:05:34.018Z,3.07
2024-03-11T11:08:03.685Z,2.40
2024-03-11T11:10:31.532Z,2.50
2024-03-11T11:13:00.893Z,3.30
2024-03-11T11:15:29.888Z,3.27
2024-03-11T11:17:57.808Z,7.77
2024-03-11T11:20:35.595Z,1.83
2024-03-11T11:23:03.920Z,2.57
2024-03-11T11:25:41.267Z,2.80
2024-03-11T11:28:29.704Z,2.27
2024-03-11T11:31:25.910Z,1.90
2024-03-11T11:34:00.312Z,2.67
2024-03-11T11:36:33.365Z,2.17
2024-03-11T11:39:15.837Z,3.23
2024-03-11T11:41:47.715Z,2.87
2024-03-11T11:44:30.737Z,4.50
2024-03-11T11:47:14.550Z,2.73
2024-03-11T11:49:44.137Z,6.37
2024-03-11T11:52:12.245Z,4.47
2024-03-11T11:54:39.678Z,2.60
2024-03-11T11:57:18.144Z,2.70
2024-03-11T11:59:46.200Z,3.27
2024-03-11T12:02:27.197Z,3.73
2024-03-11T12:04:57.752Z,3.30
2024-03-11T12:07:26.592Z,2.57
2024-03-11T12:09:55.433Z,3.60
2024-03-11T12:12:34.405Z,3.20
2024-03-11T12:15:07.313Z,5.33
2024-03-11T12:17:34.651Z,17.13
2024-03-11T12:20:26.384Z,3.93
2024-03-11T12:22:56.620Z,8.23
2024-03-11T12:25:23.864Z,4.60
2024-03-11T12:28:02.838Z,4.03
2024-03-11T12:30:39.440Z,2.00
2024-03-11T12:33:07.906Z,3.10
2024-03-11T12:35:44.818Z,2.47
2024-03-11T12:38:14.772Z,3.50
2024-03-11T12:40:44.911Z,4.93
2024-03-11T12:43:24.257Z,1.93
2024-03-11T12:45:54.295Z,2.00
2024-03-11T12:48:24.024Z,1.50
2024-03-11T12:50:56.687Z,4.10
2024-03-11T12:53:28.891Z,5.03
2024-03-11T12:56:03.576Z,7.07
2024-03-11T12:58:31.444Z,3.10
2024-03-11T13:01:03.427Z,3.93
2024-03-11T13:03:31.452Z,4.00
2024-03-11T13:06:01.581Z,2.50
2024-03-11T13:08:30.101Z,5.27
2024-03-11T13:11:05.830Z,5.17
2024-03-11T13:13:33.609Z,3.47
2024-03-11T13:16:00.976Z,4.20
2024-03-11T13:18:30.891Z,4.13
2024-03-11T13:20:59.798Z,3.40
2024-03-11T13:23:26.862Z,2.93
2024-03-11T13:25:53.821Z,4.47
2024-03-11T13:28:20.706Z,2.70
2024-03-11T13:30:50.723Z,2.63
2024-03-11T13:33:19.585Z,3.13
2024-03-11T13:35:46.424Z,2.43
2024-03-11T13:38:13.564Z,2.70
2024-03-11T13:40:40.368Z,2.43
2024-03-11T13:43:12.723Z,2.00
2024-03-11T13:45:50.965Z,1.23
2024-03-11T13:48:21.462Z,9.83
2024-03-11T13:50:48.704Z,1.93
2024-03-11T13:53:16.528Z,1.63
2024-03-11T13:55:50.365Z,3.57
2024-03-11T13:58:17.932Z,1.87
2024-03-11T14:00:49.054Z,2.00
2024-03-11T14:03:20.528Z,2.33
2024-03-11T14:05:47.835Z,5.33
2024-03-11T14:08:15.022Z,5.27
2024-03-11T14:10:44.315Z,4.43
2024-03-11T14:13:12.864Z,2.23
2024-03-11T14:15:40.162Z,19.23
2024-03-11T14:18:07.452Z,4.23
2024-03-11T14:20:34.411Z,2.57
2024-03-11T14:23:01.907Z,1.90
2024-03-11T14:25:32.637Z,2.87
2024-03-11T14:28:00.312Z,1.60
2024-03-11T14:30:35.262Z,2.00
2024-03-11T14:33:07.832Z,2.37
2024-03-11T14:35:34.912Z,1.30
2024-03-11T14:38:02.021Z,2.47
2024-03-11T14:40:33.519Z,3.40
2024-03-11T14:43:02.184Z,4.07
2024-03-11T14:45:34.975Z,2.97
2024-03-11T14:48:02.754Z,3.10
2024-03-11T14:50:37.293Z,2.90
2024-03-11T14:53:10.118Z,5.40
2024-03-11T14:55:38.065Z,3.67
2024-03-11T14:58:09.331Z,3.77
2024-03-11T15:00:37.651Z,3.73
2024-03-11T15:03:06.372Z,3.67
2024-03-11T15:05:39.916Z,6.70
2024-03-11T15:08:08.719Z,4.07
2024-03-11T15:10:35.742Z,3.60
2024-03-11T15:13:04.237Z,4.40
2024-03-11T15:15:32.571Z,3.90
2024-03-11T15:18:01.595Z,3.20
2024-03-11T15:20:29.869Z,2.83
2024-03-11T15:22:56.776Z,2.43
2024-03-11T15:25:26.624Z,3.23
2024-03-11T15:27:54.418Z,5.03
2024-03-11T15:30:22.215Z,2.20
2024-03-11T15:32:50.904Z,2.53
2024-03-11T15:35:17.880Z,2.53
2024-03-11T15:37:44.758Z,3.00
2024-03-11T15:40:12.076Z,3.17
2024-03-11T15:42:40.963Z,1.53
2024-03-11T15:45:12.362Z,2.50
2024-03-11T15:47:42.808Z,1.40
2024-03-11T15:50:20.320Z,0.93
2024-03-11T15:52:50.953Z,1.37
2024-03-11T15:55:18.417Z,1.77
2024-03-11T15:57:45.397Z,0.63
2024-03-11T16:00:19.467Z,0.77
2024-03-11T16:02:51.176Z,2.23
2024-03-11T16:05:18.682Z,1.90
2024-03-11T16:07:47.128Z,2.00
2024-03-11T16:10:15.531Z,1.33
2024-03-11T16:12:52.281Z,2.10
2024-03-11T16:15:20.507Z,1.57
2024-03-11T16:17:48.554Z,1.23
2024-03-11T16:20:28.057Z,1.43
2024-03-11T16:22:56.748Z,1.57
2024-03-11T16:25:27.173Z,2.30
2024-03-11T16:28:00.063Z,1.53
2024-03-11T16:30:30.108Z,2.63
2024-03-11T16:32:58.935Z,2.53
2024-03-11T16:35:28.398Z,2.20
2024-03-11T16:37:59.622Z,1.60
2024-03-11T16:40:27.998Z,1.70
2024-03-11T16:43:01.800Z,1.97
2024-03-11T16:45:28.840Z,2.03
2024-03-11T16:47:59.031Z,1.73
2024-03-11T16:50:29.584Z,3.47
2024-03-11T16:52:56.494Z,2.20
2024-03-11T16:55:28.170Z,1.70
2024-03-11T16:57:58.298Z,1.30
2024-03-11T17:00:29.192Z,3.37
2024-03-11T17:02:56.248Z,2.17
2024-03-11T17:05:25.636Z,2.10
2024-03-11T17:07:58.381Z,1.90
2024-03-11T17:10:32.990Z,1.77
2024-03-11T17:13:04.197Z,2.07
2024-03-11T17:15:35.291Z,3.27
2024-03-11T17:18:02.978Z,3.60
2024-03-11T17:20:42.004Z,2.13
2024-03-11T17:23:14.229Z,2.50
2024-03-11T17:25:41.012Z,2.47
2024-03-11T17:28:16.137Z,2.37
2024-03-11T17:30:44.407Z,2.50
2024-03-11T17:33:15.179Z,2.43
2024-03-11T17:35:46.754Z,7.93
2024-03-11T17:38:14.997Z,2.17
2024-03-11T17:40:45.407Z,3.67
2024-03-11T17:43:14.695Z,4.33
2024-03-11T17:45:45.292Z,1.90
2024-03-11T17:48:17.756Z,3.87
2024-03-11T17:50:45.087Z,2.63
2024-03-11T17:53:15.311Z,4.43
2024-03-11T17:55:42.764Z,2.47
2024-03-11T17:58:12.228Z,5.63
2024-03-11T18:00:41.189Z,4.07
2024-03-11T18:03:08.403Z,3.00
2024-03-11T18:05:36.623Z,6.40
2024-03-11T18:08:05.897Z,11.27
2024-03-11T18:10:34.807Z,6.93
2024-03-11T18:13:04.847Z,2.87
2024-03-11T18:15:31.712Z,3.37
2024-03-11T18:18:00.964Z,2.73
2024-03-11T18:20:29.266Z,3.17
2024-03-11T18:22:56.610Z,4.63
2024-03-11T18:25:25.400Z,4.53
2024-03-11T18:27:57.772Z,5.20
2024-03-11T18:30:29.539Z,5.00
2024-03-11T18:32:57.659Z,2.63
2024-03-11T18:35:28.041Z,3.33
2024-03-11T18:37:57.808Z,4.07
2024-03-11T18:40:25.554Z,4.50
2024-03-11T18:42:53.885Z,4.07
2024-03-11T18:45:36.375Z,4.03
2024-03-11T18:48:03.686Z,2.43
2024-03-11T18:50:31.617Z,5.97
2024-03-11T18:53:01.710Z,5.80
2024-03-11T18:55:32.762Z,5.77
2024-03-11T18:58:01.058Z,6.10
2024-03-11T19:00:30.641Z,6.53
2024-03-11T19:02:58.418Z,5.17
2024-03-11T19:05:26.643Z,4.53
2024-03-11T19:07:54.205Z,5.10
2024-03-11T19:10:23.984Z,3.93
2024-03-11T19:12:53.139Z,4.97
2024-03-11T19:15:23.983Z,4.97
2024-03-11T19:17:51.581Z,3.20
2024-03-11T19:20:26.094Z,3.63
2024-03-11T19:22:57.201Z,4.40
2024-03-11T19:25:25.390Z,6.17
2024-03-11T19:27:52.943Z,6.73
2024-03-11T19:30:29.118Z,2.13
2024-03-11T19:32:57.971Z,3.10
2024-03-11T19:35:24.827Z,3.00
2024-03-11T19:38:27.280Z,1.63
2024-03-11T19:41:11.054Z,3.47
2024-03-11T19:43:56.181Z,4.67
2024-03-11T19:46:32.021Z,6.23
2024-03-11T19:49:17.101Z,6.70
2024-03-11T19:52:22.610Z,7.33
2024-03-11T19:55:08.033Z,7.30
2024-03-11T19:58:11.132Z,6.37
2024-03-11T20:01:22.692Z,5.60
2024-03-11T20:04:02.734Z,10.27
2024-03-11T20:06:53.863Z,3.50
2024-03-11T20:09:51.588Z,2.93
2024-03-11T20:12:37.243Z,4.70
2024-03-11T20:15:30.788Z,4.37
2024-03-11T20:18:21.349Z,4.47
2024-03-11T20:21:26.968Z,9.80
2024-03-11T20:24:19.724Z,8.33
2024-03-11T20:27:14.078Z,7.80
2024-03-11T20:29:54.950Z,6.17
2024-03-11T20:32:35.510Z,7.73
2024-03-11T20:35:03.026Z,7.47
2024-03-11T20:37:31.243Z,5.57
2024-03-11T20:39:58.253Z,6.27
2024-03-11T20:42:25.117Z,4.03
2024-03-11T20:44:52.047Z,7.17
2024-03-11T20:47:19.782Z,8.10
2024-03-11T20:49:46.636Z,6.87
2024-03-11T20:52:17.336Z,5.90
2024-03-11T20:54:44.730Z,5.30
2024-03-11T20:57:11.558Z,6.33
2024-03-11T20:59:40.784Z,6.77
2024-03-11T21:02:09.112Z,7.60
2024-03-11T21:04:37.198Z,8.37
2024-03-11T21:07:06.493Z,6.30
2024-03-11T21:09:36.035Z,17.83
2024-03-11T21:12:03.686Z,11.30
2024-03-11T21:14:31.083Z,6.83
2024-03-11T21:16:59.420Z,9.20
2024-03-11T21:19:37.139Z,8.00
2024-03-11T21:22:07.274Z,11.93
2024-03-11T21:24:51.727Z,7.33
2024-03-11T21:27:24.816Z,7.60
2024-03-11T21:29:55.726Z,6.67
2024-03-11T21:32:26.238Z,8.87
2024-03-11T21:34:53.356Z,5.67
2024-03-11T21:37:21.397Z,6.70
2024-03-11T21:39:56.241Z,4.93
2024-03-11T21:42:23.945Z,9.83
2024-03-11T21:44:50.879Z,8.23
2024-03-11T21:47:23.360Z,9.07
2024-03-11T21:49:51.147Z,7.07
2024-03-11T21:52:18.722Z,6.80
2024-03-11T21:54:47.601Z,5.83
2024-03-11T21:57:14.844Z,3.97
2024-03-11T21:59:47.306Z,11.67
2024-03-11T22:02:15.647Z,7.13
2024-03-11T22:04:42.444Z,7.03
2024-03-11T22:07:12.720Z,6.77
2024-03-11T22:09:40.115Z,8.20
2024-03-11T22:12:08.696Z,8.03
2024-03-11T22:14:38.190Z,5.47
2024-03-11T22:17:05.705Z,6.90
2024-03-11T22:19:32.750Z,7.20
2024-03-11T22:21:59.666Z,5.67
2024-03-11T22:24:26.624Z,5.93
2024-03-11T22:26:54.325Z,3.60
2024-03-11T22:29:21.055Z,3.50
2024-03-11T22:31:50.649Z,3.13
2024-03-11T22:34:18.259Z,6.57
2024-03-11T22:36:46.192Z,2.70
2024-03-11T22:39:13.796Z,3.63
2024-03-11T22:41:42.759Z,4.77
2024-03-11T22:44:09.663Z,4.03
2024-03-11T22:46:37.820Z,5.03
2024-03-11T22:49:09.252Z,19.13
2024-03-11T22:51:41.624Z,13.83
2024-03-11T22:54:09.454Z,10.87
2024-03-11T22:56:38.390Z,4.83
2024-03-11T22:59:07.379Z,5.33
2024-03-11T23:01:35.141Z,9.60
2024-03-11T23:04:06.223Z,7.57
2024-03-11T23:06:36.442Z,7.83
2024-03-11T23:09:08.559Z,7.10
2024-03-11T23:11:35.622Z,6.13
2024-03-11T23:14:05.385Z,11.03
2024-03-11T23:16:32.932Z,7.23
2024-03-11T23:19:04.215Z,7.30
2024-03-11T23:21:31.734Z,8.30
2024-03-11T23:23:59.037Z,11.17
2024-03-11T23:26:28.411Z,10.30
2024-03-11T23:28:56.221Z,10.27
2024-03-11T23:31:25.580Z,11.20
2024-03-11T23:33:53.417Z,9.77
2024-03-11T23:36:23.679Z,8.87
2024-03-11T23:38:51.927Z,8.87
2024-03-11T23:41:19.754Z,7.57
2024-03-11T23:43:48.262Z,8.43
2024-03-11T23:46:16.115Z,6.90
2024-03-11T23:48:46.600Z,7.47
2024-03-11T23:51:13.793Z,7.20
2024-03-11T23:53:40.551Z,5.77
2024-03-11T23:56:09.858Z,7.60
2024-03-11T23:58:39.200Z,7.63
